createdAt,value
2023-06-11T00:00:23.534Z,7.73
2023-06-11T00:05:31.430Z,7.50
2023-06-11T00:10:33.183Z,7.83
2023-06-11T00:15:34.931Z,7.77
2023-06-11T00:20:41.824Z,8.20
2023-06-11T00:25:43.623Z,7.70
2023-06-11T00:30:45.590Z,7.67
2023-06-11T00:35:47.394Z,7.47
2023-06-11T00:40:56.280Z,7.37
2023-06-11T00:45:58.202Z,7.83
2023-06-11T00:51:00.313Z,7.63
2023-06-11T00:56:02.915Z,7.47
2023-06-11T01:01:06.830Z,7.47
2023-06-11T01:06:18.226Z,7.70
2023-06-11T01:11:23.732Z,7.53
2023-06-11T01:16:44.123Z,7.40
2023-06-11T01:21:54.653Z,7.57
2023-06-11T01:27:09.506Z,7.73
2023-06-11T01:32:11.444Z,7.57
2023-06-11T01:37:13.246Z,7.30
2023-06-11T01:42:15.010Z,7.73
2023-06-11T01:47:16.837Z,7.17
2023-06-11T01:52:18.618Z,7.60
2023-06-11T01:57:20.394Z,8.10
2023-06-11T02:02:22.187Z,7.67
2023-06-11T02:07:24.126Z,7.57
2023-06-11T02:12:28.401Z,7.43
2023-06-11T02:17:30.308Z,7.90
2023-06-11T02:22:32.225Z,7.40
2023-06-11T02:27:34.009Z,8.03
2023-06-11T02:32:35.873Z,7.93
2023-06-11T02:37:37.664Z,8.53
2023-06-11T02:42:39.558Z,7.77
2023-06-11T02:47:41.360Z,7.67
2023-06-11T02:52:50.423Z,7.60
2023-06-11T02:57:52.159Z,7.47
2023-06-11T03:02:54.195Z,8.00
2023-06-11T03:07:56.128Z,7.93
2023-06-11T03:12:58.197Z,8.17
2023-06-11T03:18:04.499Z,8.37
2023-06-11T03:23:07.610Z,8.20
2023-06-11T03:28:09.598Z,8.60
2023-06-11T03:33:11.578Z,7.80
2023-06-11T03:38:13.401Z,8.03
2023-06-11T03:43:19.641Z,7.73
2023-06-11T03:48:21.565Z,8.23
2023-06-11T03:53:23.468Z,8.10
2023-06-11T03:58:25.249Z,7.70
2023-06-11T04:03:27.113Z,8.07
2023-06-11T04:08:28.915Z,7.90
2023-06-11T04:13:30.901Z,8.03
2023-06-11T04:18:32.724Z,8.47
2023-06-11T04:23:36.534Z,7.70
2023-06-11T04:28:38.493Z,8.00
2023-06-11T04:33:40.344Z,8.03
2023-06-11T04:38:46.113Z,7.40
2023-06-11T04:43:48.198Z,8.40
2023-06-11T04:48:51.527Z,8.07
2023-06-11T04:53:55.570Z,7.67
2023-06-11T04:58:57.379Z,7.83
2023-06-11T05:04:01.499Z,9.03
2023-06-11T05:09:04.434Z,8.07
2023-06-11T05:14:06.488Z,8.53
2023-06-11T05:19:08.386Z,8.40
2023-06-11T05:24:20.431Z,8.00
2023-06-11T05:29:22.941Z,8.57
2023-06-11T05:34:27.416Z,7.60
2023-06-11T05:39:34.687Z,8.00
2023-06-11T05:44:36.510Z,8.20
2023-06-11T05:49:38.300Z,7.93
2023-06-11T05:54:40.123Z,8.03
2023-06-11T05:59:41.893Z,8.33
2023-06-11T06:04:49.535Z,7.27
2023-06-11T06:09:51.732Z,7.70
2023-06-11T06:14:53.505Z,7.67
2023-06-11T06:19:56.393Z,7.37
2023-06-11T06:25:01.627Z,7.47
2023-06-11T06:30:07.131Z,7.53
2023-06-11T06:35:10.175Z,7.90
2023-06-11T06:40:13.665Z,7.63
2023-06-11T06:45:15.889Z,6.80
2023-06-11T06:50:17.768Z,7.93
2023-06-11T06:55:19.576Z,7.53
2023-06-11T07:00:21.719Z,7.47
2023-06-11T07:05:23.574Z,7.70
2023-06-11T07:10:25.696Z,7.40
2023-06-11T07:15:27.522Z,7.00
2023-06-11T07:20:29.516Z,6.97
2023-06-11T07:25:32.217Z,6.37
2023-06-11T07:30:34.717Z,6.30
2023-06-11T07:35:43.804Z,6.60
2023-06-11T07:40:45.774Z,6.03
2023-06-11T07:45:47.532Z,5.87
2023-06-11T07:50:50.457Z,5.93
2023-06-11T07:55:57.919Z,6.20
2023-06-11T08:00:59.857Z,5.30
2023-06-11T08:06:01.731Z,5.87
2023-06-11T08:11:03.598Z,5.80
2023-06-11T08:16:05.904Z,5.80
2023-06-11T08:21:07.771Z,5.50
2023-06-11T08:26:15.020Z,5.50
2023-06-11T08:31:16.994Z,5.40
2023-06-11T08:36:19.028Z,5.17
2023-06-11T08:41:21.769Z,6.97
2023-06-11T08:46:25.296Z,5.90
2023-06-11T08:51:35.093Z,6.40
2023-06-11T08:56:37.023Z,6.63
2023-06-11T09:01:47.152Z,7.07
2023-06-11T09:06:53.548Z,7.15
2023-06-11T09:11:55.835Z,6.47
2023-06-11T09:16:57.616Z,6.60
2023-06-11T09:21:59.579Z,6.80
2023-06-11T09:27:05.504Z,6.47
2023-06-11T09:32:19.482Z,6.28
2023-06-11T09:37:31.903Z,6.57
2023-06-11T09:42:36.830Z,6.40
2023-06-11T09:47:40.294Z,6.63
2023-06-11T09:52:43.304Z,5.97
2023-06-11T09:57:54.305Z,6.20
2023-06-11T10:02:56.218Z,5.55
2023-06-11T10:08:13.520Z,6.00
2023-06-11T10:13:34.484Z,5.32
2023-06-11T10:18:36.534Z,5.18
2023-06-11T10:23:44.920Z,5.95
2023-06-11T10:28:50.471Z,6.85
2023-06-11T10:33:52.492Z,5.40
2023-06-11T10:39:27.768Z,4.70
2023-06-11T10:44:32.894Z,5.50
2023-06-11T10:49:34.694Z,5.88
2023-06-11T10:54:38.150Z,4.60
2023-06-11T10:59:40.230Z,3.85
2023-06-11T11:04:52.804Z,3.90
2023-06-11T11:09:56.848Z,3.80
2023-06-11T11:15:00.447Z,3.78
2023-06-11T11:20:02.490Z,3.47
2023-06-11T11:25:06.331Z,4.00
2023-06-11T11:30:08.819Z,3.70
2023-06-11T11:35:13.205Z,3.58
2023-06-11T11:40:22.792Z,3.80
2023-06-11T11:45:33.256Z,3.40
2023-06-11T11:50:35.477Z,3.80
2023-06-11T12:00:54.603Z,3.60
2023-06-11T12:05:56.467Z,3.60
2023-06-11T12:10:59.456Z,3.95
2023-06-11T12:16:04.160Z,3.55
2023-06-11T12:21:08.425Z,3.75
2023-06-11T12:26:10.362Z,3.47
2023-06-11T12:31:12.230Z,3.40
2023-06-11T12:36:14.102Z,3.55
2023-06-11T12:41:16.911Z,3.53
2023-06-11T12:46:18.906Z,3.50
2023-06-11T12:51:23.792Z,3.30
2023-06-11T12:56:26.741Z,3.53
2023-06-11T13:01:28.732Z,4.07
2023-06-11T13:06:31.052Z,3.72
2023-06-11T13:11:33.467Z,3.83
2023-06-11T13:16:44.092Z,3.80
2023-06-11T13:21:46.425Z,4.03
2023-06-11T13:26:48.275Z,3.88
2023-06-11T13:31:50.944Z,3.35
2023-06-11T13:36:57.141Z,4.20
2023-06-11T13:41:59.225Z,4.13
2023-06-11T13:47:01.490Z,3.70
2023-06-11T13:52:04.964Z,3.65
2023-06-11T13:57:07.255Z,4.05
2023-06-11T14:02:09.270Z,3.65
2023-06-11T14:07:14.091Z,3.75
2023-06-11T14:12:16.004Z,4.13
2023-06-11T14:17:18.646Z,4.07
2023-06-11T14:22:21.807Z,4.03
2023-06-11T14:27:23.600Z,4.20
2023-06-11T14:32:28.817Z,3.90
2023-06-11T14:37:30.687Z,3.70
2023-06-11T14:42:32.464Z,3.90
2023-06-11T14:47:34.963Z,4.47
2023-06-11T14:52:36.923Z,4.05
2023-06-11T14:57:38.935Z,3.90
2023-06-11T15:02:40.919Z,4.22
2023-06-11T15:07:42.796Z,4.25
2023-06-11T15:12:52.716Z,4.45
2023-06-11T15:17:54.514Z,4.03
2023-06-11T15:22:56.323Z,4.28
2023-06-11T15:27:58.212Z,4.22
2023-06-11T15:33:00.203Z,4.40
2023-06-11T15:38:03.394Z,4.50
2023-06-11T15:43:05.246Z,4.60
2023-06-11T15:48:07.058Z,4.60
2023-06-11T15:53:11.966Z,4.40
2023-06-11T15:58:13.758Z,4.25
2023-06-11T16:03:16.424Z,4.40
2023-06-11T16:08:18.386Z,4.22
2023-06-11T16:13:20.196Z,5.03
2023-06-11T16:18:24.357Z,4.00
2023-06-11T16:23:26.310Z,4.22
2023-06-11T16:28:28.094Z,4.00
2023-06-11T16:33:43.715Z,5.00
2023-06-11T16:38:59.527Z,4.45
2023-06-11T16:44:05.649Z,4.10
2023-06-11T16:49:07.478Z,4.40
2023-06-11T16:54:09.445Z,5.00
2023-06-11T16:59:11.245Z,4.63
2023-06-11T17:04:13.183Z,4.75
2023-06-11T17:09:15.133Z,5.00
2023-06-11T17:14:17.093Z,4.53
2023-06-11T17:19:18.900Z,4.65
2023-06-11T17:24:20.854Z,5.13
2023-06-11T17:29:22.734Z,4.88
2023-06-11T17:34:24.653Z,4.88
2023-06-11T17:39:26.467Z,4.72
2023-06-11T17:44:33.977Z,4.90
2023-06-11T17:49:35.797Z,4.88
2023-06-11T17:54:38.078Z,5.05
2023-06-11T17:59:39.890Z,4.90
2023-06-11T18:04:41.704Z,4.65
2023-06-11T18:09:48.982Z,4.35
2023-06-11T18:14:51.075Z,4.93
2023-06-11T18:19:52.861Z,4.57
2023-06-11T18:24:55.037Z,5.13
2023-06-11T18:29:56.850Z,4.90
2023-06-11T18:34:58.596Z,4.50
2023-06-11T18:40:00.624Z,4.78
2023-06-11T18:45:02.451Z,5.00
2023-06-11T18:50:10.985Z,4.60
2023-06-11T18:55:13.409Z,4.40
2023-06-11T19:00:23.182Z,4.70
2023-06-11T19:05:25.142Z,4.70
2023-06-11T19:10:27.751Z,5.10
2023-06-11T19:15:29.546Z,4.53
2023-06-11T19:20:31.467Z,5.10
2023-06-11T19:25:42.582Z,4.70
2023-06-11T19:30:45.577Z,5.00
2023-06-11T19:35:47.473Z,5.20
2023-06-11T19:40:50.769Z,5.50
2023-06-11T19:45:52.538Z,5.07
2023-06-11T19:50:54.464Z,4.57
2023-06-11T19:55:56.551Z,4.63
2023-06-11T20:00:58.433Z,4.73
2023-06-11T20:06:03.084Z,4.87
2023-06-11T20:11:12.648Z,4.80
2023-06-11T20:16:15.011Z,5.00
2023-06-11T20:21:16.916Z,4.90
2023-06-11T20:26:18.932Z,5.20
2023-06-11T20:31:21.158Z,5.30
2023-06-11T20:36:23.078Z,5.10
2023-06-11T20:41:30.781Z,4.93
2023-06-11T20:46:32.916Z,4.90
2023-06-11T20:51:34.809Z,5.17
2023-06-11T20:56:36.643Z,5.10
2023-06-11T21:01:38.514Z,5.10
2023-06-11T21:06:40.711Z,5.13
2023-06-11T21:11:42.824Z,4.70
2023-06-11T21:16:44.820Z,5.10
2023-06-11T21:21:48.588Z,5.10
2023-06-11T21:26:50.575Z,5.00
2023-06-11T21:31:52.442Z,4.53
2023-06-11T21:36:54.348Z,4.97
2023-06-11T21:41:56.131Z,4.93
2023-06-11T21:46:59.951Z,4.67
2023-06-11T21:52:03.109Z,4.60
2023-06-11T21:57:05.429Z,4.87
2023-06-11T22:02:10.738Z,4.60
2023-06-11T22:07:14.429Z,4.70
2023-06-11T22:12:16.202Z,4.80
2023-06-11T22:17:18.378Z,5.27
2023-06-11T22:22:20.217Z,4.93
2023-06-11T22:27:27.328Z,4.67
2023-06-11T22:32:29.125Z,5.00
2023-06-11T22:37:31.238Z,5.07
2023-06-11T22:42:33.874Z,4.93
2023-06-11T22:47:36.545Z,4.87
2023-06-11T22:52:50.587Z,4.80
2023-06-11T22:57:52.600Z,5.27
2023-06-11T23:03:01.869Z,4.83
2023-06-11T23:08:03.989Z,5.00
2023-06-11T23:13:05.813Z,4.77
2023-06-11T23:18:10.726Z,5.17
2023-06-11T23:23:12.570Z,5.07
2023-06-11T23:28:14.441Z,5.20
2023-06-11T23:33:16.488Z,4.93
2023-06-11T23:38:18.348Z,5.43
2023-06-11T23:43:20.167Z,5.20
2023-06-11T23:48:22.008Z,5.60
2023-06-11T23:53:24.142Z,5.03
2023-06-11T23:58:26.003Z,5.50
